This is the latest recevied weather packets stored in our database for station/object EA3RCF. If no packets are shown the sender has not sent any weather packets the latest 10 day(s).
| Time | Temp. | Humidity | Pressure | Rain* | Wind** | Luminosity | Snow |
|---|---|---|---|---|---|---|---|
| 1777545213 | 19.44° C | 63% | 1018.5 hPa | 0 mm | - | - | - |
| 1777544919 | 19.44° C | 66% | 1018.5 hPa | 0 mm | - | - | - |
| 1777544601 | 18.89° C | 67% | 1018.4 hPa | 0 mm | - | - | - |
| 1777544302 | 18.89° C | 67% | 1018.5 hPa | 0 mm | - | - | - |
| 1777544009 | 18.89° C | 67% | 1018.5 hPa | 0 mm | - | - | - |
| 1777543710 | 18.89° C | 66% | 1018.4 hPa | 0 mm | - | - | - |
| 1777543417 | 19.44° C | 66% | 1018.4 hPa | 0 mm | - | - | - |
| 1777543105 | 19.44° C | 66% | 1018.4 hPa | 0 mm | - | - | - |
| 1777542805 | 19.44° C | 61% | 1018.4 hPa | 0 mm | - | - | - |
| 1777542514 | 19.44° C | 67% | 1018.3 hPa | 0 mm | - | - | - |
| 1777541905 | 18.89° C | 72% | 1018.2 hPa | 0 mm | - | - | - |
| 1777541614 | 18.33° C | 75% | 1018.2 hPa | 0 mm | - | - | - |
| 1777541313 | 18.33° C | 76% | 1018.1 hPa | 0 mm | - | - | - |
| 1777540710 | 16.67° C | 92% | 1018.1 hPa | 0 mm | - | - | - |
| 1777540411 | 16.67° C | 94% | 1017.9 hPa | 0 mm | - | - | - |
| 1777540102 | 16.67° C | 95% | 1017.8 hPa | 0 mm | - | - | - |
| 1777539810 | 16.11° C | 95% | 1017.9 hPa | 0 mm | - | - | - |
| 1777539513 | 15.56° C | 94% | 1017.8 hPa | 0 mm | - | - | - |
| 1777539220 | 15.56° C | 94% | 1017.7 hPa | 0 mm | - | - | - |
| 1777538903 | 15.56° C | 95% | 1017.7 hPa | 0 mm | - | - | - |
| 1777538604 | 15.56° C | 94% | 1017.6 hPa | 0 mm | - | - | - |
| 1777538314 | 15.56° C | 95% | 1017.6 hPa | 0 mm | - | - | - |
| 1777537994 | 15.56° C | 95% | 1017.7 hPa | 0 mm | - | - | - |
| 1777537696 | 15.56° C | 95% | 1017.7 hPa | 0 mm | - | - | - |
| 1777537404 | 15.56° C | 94% | 1017.5 hPa | 0 mm | - | - | - |
* Rain latest hour (hover to see other rain measurements)
** Current wind speed in m/s (hover to see current wind gust speed)